DAL525 KATL-KLGA
Flight info
| Callsign | DAL525 |
|---|---|
| Flight time | 1h 39m |
| Altitude | 37000 |
| Route | JACCC2 KELLN BYJAC Q60 HURTS PROUD2 |
| Aircraft | A321/M-SDE3FGHIRWY/LB1 |
Departure
| Time | 2026-05-03 20:18 |
|---|---|
| Airport | Hartsfield Jackson Atlanta International Airport (KATL) |
Arrival
| Time | 2026-05-03 21:57 |
|---|---|
| Airport | LaGuardia Airport (KLGA) |
| Time | Latitude | Longitude | Altitude | Speed | Heading |
|---|---|---|---|---|---|
| 2026-05-03 20:15 | 33.63581 | -84.41679 | 1006 ft | 24 kts | 91° |
| 2026-05-03 20:15 | 33.63579 | -84.41480 | 1005 ft | 23 kts | 90° |
| 2026-05-03 20:15 | 33.63579 | -84.41288 | 1006 ft | 22 kts | 89° |
| 2026-05-03 20:15 | 33.63581 | -84.41109 | 1006 ft | 21 kts | 89° |
| 2026-05-03 20:16 | 33.63583 | -84.40939 | 1006 ft | 20 kts | 89° |
| 2026-05-03 20:16 | 33.63575 | -84.40785 | 1007 ft | 15 kts | 120° |
| 2026-05-03 20:16 | 33.63491 | -84.40756 | 1007 ft | 12 kts | 208° |
| 2026-05-03 20:16 | 33.63470 | -84.40846 | 1007 ft | 13 kts | 269° |
| 2026-05-03 20:17 | 33.63472 | -84.41142 | 1005 ft | 69 kts | 270° |
| 2026-05-03 20:17 | 33.63471 | -84.41962 | 1008 ft | 125 kts | 270° |
| 2026-05-03 20:17 | 33.63469 | -84.43184 | 1008 ft | 166 kts | 269° |
| 2026-05-03 20:17 | 33.63464 | -84.44603 | 1445 ft | 169 kts | 270° |
| 2026-05-03 20:18 | 33.63451 | -84.46032 | 2048 ft | 172 kts | 269° |
| 2026-05-03 20:18 | 33.63357 | -84.47477 | 2670 ft | 177 kts | 259° |
| 2026-05-03 20:18 | 33.62832 | -84.48904 | 2943 ft | 199 kts | 245° |
| 2026-05-03 20:18 | 33.62171 | -84.50461 | 3162 ft | 222 kts | 245° |
| 2026-05-03 20:19 | 33.61431 | -84.52216 | 3493 ft | 247 kts | 245° |
| 2026-05-03 20:19 | 33.60640 | -84.54099 | 4200 ft | 257 kts | 244° |
| 2026-05-03 20:19 | 33.59840 | -84.56005 | 5039 ft | 262 kts | 244° |
| 2026-05-03 20:19 | 33.58713 | -84.57729 | 5840 ft | 270 kts | 218° |
| 2026-05-03 20:20 | 33.56930 | -84.58507 | 6598 ft | 281 kts | 186° |
| 2026-05-03 20:20 | 33.54950 | -84.58569 | 7378 ft | 286 kts | 182° |
| 2026-05-03 20:20 | 33.52950 | -84.58554 | 8189 ft | 289 kts | 181° |
| 2026-05-03 20:20 | 33.50924 | -84.58522 | 8990 ft | 293 kts | 181° |
| 2026-05-03 20:21 | 33.48889 | -84.58245 | 9779 ft | 299 kts | 162° |
| 2026-05-03 20:21 | 33.47093 | -84.56968 | 10456 ft | 307 kts | 135° |
| 2026-05-03 20:21 | 33.45892 | -84.54792 | 10768 ft | 327 kts | 108° |
| 2026-05-03 20:21 | 33.45571 | -84.52068 | 10933 ft | 347 kts | 90° |
| 2026-05-03 20:22 | 33.45539 | -84.49127 | 11396 ft | 357 kts | 89° |
| 2026-05-03 20:22 | 33.45559 | -84.46133 | 12048 ft | 362 kts | 88° |
| 2026-05-03 20:22 | 33.45590 | -84.43098 | 12741 ft | 367 kts | 88° |
| 2026-05-03 20:22 | 33.45610 | -84.40024 | 13424 ft | 371 kts | 89° |
| 2026-05-03 20:23 | 33.45633 | -84.36911 | 14085 ft | 376 kts | 86° |
| 2026-05-03 20:23 | 33.46009 | -84.33802 | 14668 ft | 379 kts | 75° |
| 2026-05-03 20:23 | 33.46867 | -84.30819 | 15259 ft | 381 kts | 63° |
| 2026-05-03 20:23 | 33.48104 | -84.27996 | 15839 ft | 384 kts | 59° |
| 2026-05-03 20:24 | 33.49383 | -84.25167 | 16419 ft | 389 kts | 60° |
| 2026-05-03 20:24 | 33.50674 | -84.22295 | 16988 ft | 393 kts | 60° |
| 2026-05-03 20:24 | 33.51955 | -84.19433 | 17577 ft | 397 kts | 60° |
| 2026-05-03 20:24 | 33.53264 | -84.16502 | 18150 ft | 401 kts | 60° |
| 2026-05-03 20:25 | 33.54587 | -84.13536 | 18688 ft | 405 kts | 60° |
| 2026-05-03 20:25 | 33.55917 | -84.10545 | 19188 ft | 408 kts | 60° |
| 2026-05-03 20:25 | 33.57257 | -84.07532 | 19682 ft | 411 kts | 60° |
| 2026-05-03 20:25 | 33.58610 | -84.04490 | 20169 ft | 415 kts | 60° |
| 2026-05-03 20:26 | 33.59972 | -84.01421 | 20650 ft | 418 kts | 60° |
| 2026-05-03 20:26 | 33.61341 | -83.98336 | 21119 ft | 421 kts | 60° |
| 2026-05-03 20:26 | 33.62721 | -83.95222 | 21611 ft | 425 kts | 60° |
| 2026-05-03 20:26 | 33.64098 | -83.92117 | 22067 ft | 428 kts | 60° |
| 2026-05-03 20:27 | 33.65504 | -83.88946 | 22507 ft | 432 kts | 60° |
| 2026-05-03 20:27 | 33.66919 | -83.85751 | 22951 ft | 436 kts | 60° |
| 2026-05-03 20:27 | 33.68348 | -83.82521 | 23401 ft | 439 kts | 60° |
| 2026-05-03 20:27 | 33.69785 | -83.79268 | 23815 ft | 443 kts | 60° |
| 2026-05-03 20:28 | 33.71231 | -83.75993 | 24168 ft | 446 kts | 60° |
| 2026-05-03 20:28 | 33.72691 | -83.72684 | 24527 ft | 450 kts | 60° |
| 2026-05-03 20:28 | 33.74157 | -83.69356 | 24867 ft | 453 kts | 60° |
| 2026-05-03 20:28 | 33.75619 | -83.66036 | 25219 ft | 457 kts | 60° |
| 2026-05-03 20:29 | 33.77168 | -83.62689 | 25554 ft | 460 kts | 57° |
| 2026-05-03 20:29 | 33.78844 | -83.59403 | 25916 ft | 462 kts | 55° |
| 2026-05-03 20:29 | 33.80608 | -83.56169 | 26288 ft | 464 kts | 53° |
| 2026-05-03 20:29 | 33.82419 | -83.52943 | 26635 ft | 467 kts | 53° |
| 2026-05-03 20:30 | 33.84247 | -83.49689 | 26908 ft | 472 kts | 53° |
| 2026-05-03 20:30 | 33.86069 | -83.46389 | 27217 ft | 476 kts | 54° |
| 2026-05-03 20:30 | 33.87884 | -83.43040 | 27529 ft | 479 kts | 54° |
| 2026-05-03 20:30 | 33.89688 | -83.39661 | 27842 ft | 482 kts | 54° |
| 2026-05-03 20:31 | 33.91472 | -83.36288 | 28149 ft | 486 kts | 54° |
| 2026-05-03 20:31 | 33.93289 | -83.32844 | 28474 ft | 489 kts | 54° |
| 2026-05-03 20:31 | 33.95121 | -83.29381 | 28772 ft | 492 kts | 54° |
| 2026-05-03 20:31 | 33.96968 | -83.25901 | 29067 ft | 495 kts | 54° |
| 2026-05-03 20:32 | 33.98831 | -83.22393 | 29367 ft | 498 kts | 54° |
| 2026-05-03 20:32 | 34.00698 | -83.18879 | 29645 ft | 501 kts | 54° |
| 2026-05-03 20:32 | 34.02582 | -83.15326 | 29947 ft | 504 kts | 54° |
| 2026-05-03 20:32 | 34.04470 | -83.11762 | 30253 ft | 505 kts | 54° |
| 2026-05-03 20:33 | 34.06364 | -83.08183 | 30496 ft | 508 kts | 54° |
| 2026-05-03 20:33 | 34.08242 | -83.04633 | 30732 ft | 510 kts | 54° |
| 2026-05-03 20:33 | 34.10150 | -83.01015 | 30965 ft | 513 kts | 54° |
| 2026-05-03 20:33 | 34.12064 | -82.97373 | 31271 ft | 514 kts | 54° |
| 2026-05-03 20:34 | 34.13977 | -82.93730 | 31620 ft | 514 kts | 54° |
| 2026-05-03 20:34 | 34.15886 | -82.90088 | 31941 ft | 514 kts | 54° |
| 2026-05-03 20:34 | 34.17798 | -82.86428 | 32265 ft | 515 kts | 54° |
| 2026-05-03 20:34 | 34.19703 | -82.82767 | 32587 ft | 516 kts | 54° |
| 2026-05-03 20:35 | 34.21614 | -82.79095 | 32906 ft | 516 kts | 54° |
| 2026-05-03 20:35 | 34.23503 | -82.75470 | 33188 ft | 517 kts | 54° |
| 2026-05-03 20:35 | 34.25421 | -82.71783 | 33478 ft | 519 kts | 54° |
| 2026-05-03 20:35 | 34.27343 | -82.68086 | 33855 ft | 519 kts | 54° |
| 2026-05-03 20:36 | 34.29258 | -82.64398 | 34179 ft | 519 kts | 54° |
| 2026-05-03 20:36 | 34.31179 | -82.60694 | 34446 ft | 520 kts | 54° |
| 2026-05-03 20:36 | 34.33101 | -82.56984 | 34712 ft | 520 kts | 54° |
| 2026-05-03 20:36 | 34.35023 | -82.53268 | 34985 ft | 521 kts | 54° |
| 2026-05-03 20:37 | 34.36937 | -82.49561 | 35266 ft | 521 kts | 54° |
| 2026-05-03 20:37 | 34.38863 | -82.45831 | 35517 ft | 521 kts | 54° |
| 2026-05-03 20:37 | 34.40785 | -82.42108 | 35771 ft | 522 kts | 54° |
| 2026-05-03 20:37 | 34.42678 | -82.38438 | 35998 ft | 522 kts | 54° |
| 2026-05-03 20:38 | 34.44602 | -82.34697 | 36185 ft | 524 kts | 55° |
| 2026-05-03 20:38 | 34.46481 | -82.30888 | 36401 ft | 526 kts | 57° |
| 2026-05-03 20:38 | 34.48273 | -82.27033 | 36620 ft | 527 kts | 58° |
| 2026-05-03 20:38 | 34.50021 | -82.23114 | 36910 ft | 527 kts | 59° |
| 2026-05-03 20:39 | 34.51758 | -82.19206 | 37095 ft | 526 kts | 56° |
| 2026-05-03 20:39 | 34.56118 | -82.12221 | 37134 ft | 517 kts | 44° |
| 2026-05-03 20:40 | 34.60882 | -82.05706 | 37130 ft | 516 kts | 43° |
| 2026-05-03 20:40 | 34.65627 | -81.99244 | 37131 ft | 516 kts | 43° |
| 2026-05-03 20:41 | 34.70383 | -81.92708 | 37126 ft | 516 kts | 44° |
| 2026-05-03 20:41 | 34.75112 | -81.86157 | 37124 ft | 513 kts | 44° |
| 2026-05-03 20:42 | 34.79807 | -81.79639 | 37120 ft | 512 kts | 44° |
| 2026-05-03 20:42 | 34.84468 | -81.73179 | 37120 ft | 511 kts | 44° |
| 2026-05-03 20:43 | 34.89157 | -81.66664 | 37123 ft | 511 kts | 44° |
| 2026-05-03 20:43 | 34.93835 | -81.60141 | 37108 ft | 512 kts | 44° |
| 2026-05-03 20:44 | 34.98537 | -81.53587 | 37136 ft | 513 kts | 44° |
| 2026-05-03 20:44 | 35.03202 | -81.47077 | 37132 ft | 513 kts | 44° |
| 2026-05-03 20:45 | 35.07888 | -81.40514 | 37126 ft | 513 kts | 44° |
| 2026-05-03 20:45 | 35.12564 | -81.33941 | 37123 ft | 513 kts | 44° |
| 2026-05-03 20:46 | 35.17245 | -81.27363 | 37121 ft | 513 kts | 44° |
| 2026-05-03 20:46 | 35.21888 | -81.20827 | 37140 ft | 513 kts | 44° |
| 2026-05-03 20:47 | 35.26574 | -81.14230 | 37133 ft | 513 kts | 44° |
| 2026-05-03 20:47 | 35.31246 | -81.07627 | 37130 ft | 513 kts | 44° |
| 2026-05-03 20:48 | 35.35910 | -81.01008 | 37130 ft | 513 kts | 44° |
| 2026-05-03 20:48 | 35.40575 | -80.94380 | 37132 ft | 513 kts | 44° |
| 2026-05-03 20:49 | 35.45194 | -80.87808 | 37140 ft | 511 kts | 44° |
| 2026-05-03 20:49 | 35.49835 | -80.81204 | 37127 ft | 511 kts | 44° |
| 2026-05-03 20:50 | 35.54482 | -80.74578 | 37127 ft | 513 kts | 44° |
| 2026-05-03 20:50 | 35.59101 | -80.67977 | 37134 ft | 513 kts | 44° |
| 2026-05-03 20:51 | 35.63751 | -80.61314 | 37111 ft | 514 kts | 44° |
| 2026-05-03 20:51 | 35.68403 | -80.54641 | 37118 ft | 514 kts | 44° |
| 2026-05-03 20:52 | 35.73046 | -80.47956 | 37096 ft | 514 kts | 44° |
| 2026-05-03 20:52 | 35.77697 | -80.41247 | 37100 ft | 515 kts | 44° |
| 2026-05-03 20:53 | 35.82318 | -80.34571 | 37103 ft | 516 kts | 44° |
| 2026-05-03 20:53 | 35.86967 | -80.27840 | 37158 ft | 516 kts | 44° |
| 2026-05-03 20:54 | 35.91615 | -80.21092 | 37147 ft | 516 kts | 44° |
| 2026-05-03 20:54 | 35.98162 | -80.10524 | 37111 ft | 521 kts | 52° |
| 2026-05-03 20:55 | 36.02075 | -80.03058 | 37115 ft | 521 kts | 52° |
| 2026-05-03 20:55 | 36.06009 | -79.95534 | 37116 ft | 522 kts | 52° |
| 2026-05-03 20:56 | 36.09956 | -79.88004 | 37157 ft | 521 kts | 51° |
| 2026-05-03 20:56 | 36.14042 | -79.80699 | 37143 ft | 519 kts | 49° |
| 2026-05-03 20:57 | 36.18262 | -79.73467 | 37124 ft | 519 kts | 49° |
| 2026-05-03 20:57 | 36.22459 | -79.66180 | 37112 ft | 520 kts | 49° |
| 2026-05-03 20:58 | 36.26607 | -79.58839 | 37105 ft | 520 kts | 50° |
| 2026-05-03 20:58 | 36.30743 | -79.51475 | 37142 ft | 520 kts | 50° |
| 2026-05-03 20:59 | 36.34849 | -79.44166 | 37128 ft | 520 kts | 50° |
| 2026-05-03 20:59 | 36.38983 | -79.36798 | 37106 ft | 520 kts | 50° |
| 2026-05-03 21:00 | 36.42421 | -79.30680 | 37102 ft | 521 kts | 50° |
| 2026-05-03 21:00 | 36.47266 | -79.22056 | 37102 ft | 521 kts | 50° |
| 2026-05-03 21:01 | 36.51373 | -79.14698 | 37143 ft | 522 kts | 50° |
| 2026-05-03 21:01 | 36.55502 | -79.07280 | 37116 ft | 521 kts | 50° |
| 2026-05-03 21:02 | 36.59621 | -78.99854 | 37096 ft | 522 kts | 50° |
| 2026-05-03 21:02 | 36.63730 | -78.92405 | 37094 ft | 522 kts | 50° |
| 2026-05-03 21:03 | 36.67823 | -78.84921 | 37097 ft | 523 kts | 50° |
| 2026-05-03 21:03 | 36.71765 | -78.77365 | 37124 ft | 527 kts | 57° |
| 2026-05-03 21:04 | 36.75161 | -78.69300 | 37089 ft | 525 kts | 58° |
| 2026-05-03 21:04 | 36.78539 | -78.61213 | 37073 ft | 526 kts | 58° |
| 2026-05-03 21:05 | 36.81920 | -78.53110 | 37075 ft | 527 kts | 58° |
| 2026-05-03 21:05 | 36.85313 | -78.44988 | 37081 ft | 528 kts | 58° |
| 2026-05-03 21:06 | 36.88682 | -78.36910 | 37091 ft | 528 kts | 58° |
| 2026-05-03 21:06 | 36.92065 | -78.28752 | 37116 ft | 528 kts | 58° |
| 2026-05-03 21:07 | 36.95435 | -78.20616 | 37099 ft | 527 kts | 58° |
| 2026-05-03 21:07 | 36.98792 | -78.12483 | 37092 ft | 527 kts | 58° |
| 2026-05-03 21:08 | 37.02135 | -78.04380 | 37087 ft | 527 kts | 58° |
| 2026-05-03 21:08 | 37.05494 | -77.96211 | 37087 ft | 527 kts | 58° |
| 2026-05-03 21:09 | 37.08843 | -77.88040 | 37073 ft | 528 kts | 58° |
| 2026-05-03 21:09 | 37.12192 | -77.79864 | 37108 ft | 527 kts | 58° |
| 2026-05-03 21:10 | 37.15497 | -77.71736 | 37089 ft | 527 kts | 58° |
| 2026-05-03 21:10 | 37.18818 | -77.63557 | 37097 ft | 527 kts | 58° |
| 2026-05-03 21:11 | 37.22138 | -77.55358 | 37073 ft | 527 kts | 58° |
| 2026-05-03 21:11 | 37.25463 | -77.47146 | 37074 ft | 529 kts | 58° |
| 2026-05-03 21:12 | 37.28776 | -77.38962 | 37137 ft | 530 kts | 58° |
| 2026-05-03 21:12 | 37.32095 | -77.30710 | 37111 ft | 529 kts | 58° |
| 2026-05-03 21:13 | 37.35417 | -77.22449 | 37100 ft | 529 kts | 58° |
| 2026-05-03 21:13 | 37.38725 | -77.14186 | 37094 ft | 530 kts | 59° |
| 2026-05-03 21:14 | 37.42025 | -77.05898 | 37098 ft | 530 kts | 59° |
| 2026-05-03 21:14 | 37.45914 | -76.98152 | 37104 ft | 516 kts | 41° |
| 2026-05-03 21:15 | 37.51134 | -76.92346 | 37104 ft | 494 kts | 23° |
| 2026-05-03 21:15 | 37.57078 | -76.88259 | 37090 ft | 485 kts | 18° |
| 2026-05-03 21:16 | 37.63057 | -76.84294 | 37088 ft | 486 kts | 18° |
| 2026-05-03 21:16 | 37.69036 | -76.80296 | 37093 ft | 487 kts | 18° |
| 2026-05-03 21:17 | 37.74018 | -76.76967 | 37084 ft | 487 kts | 18° |
| 2026-05-03 21:17 | 37.80985 | -76.72298 | 37088 ft | 488 kts | 18° |
| 2026-05-03 21:18 | 37.86980 | -76.68281 | 37094 ft | 488 kts | 18° |
| 2026-05-03 21:18 | 37.92997 | -76.64363 | 37121 ft | 486 kts | 17° |
| 2026-05-03 21:19 | 37.99008 | -76.60605 | 37088 ft | 485 kts | 16° |
| 2026-05-03 21:19 | 38.05059 | -76.56822 | 37073 ft | 485 kts | 17° |
| 2026-05-03 21:20 | 38.11094 | -76.52988 | 37063 ft | 485 kts | 17° |
| 2026-05-03 21:20 | 38.17115 | -76.49128 | 37056 ft | 484 kts | 17° |
| 2026-05-03 21:21 | 38.23088 | -76.45302 | 37066 ft | 484 kts | 17° |
| 2026-05-03 21:21 | 38.29078 | -76.41365 | 37066 ft | 491 kts | 23° |
| 2026-05-03 21:22 | 38.34648 | -76.36132 | 37105 ft | 499 kts | 30° |
| 2026-05-03 21:22 | 38.40132 | -76.30747 | 37050 ft | 499 kts | 30° |
| 2026-05-03 21:23 | 38.42869 | -76.28065 | 36798 ft | 497 kts | 30° |
| 2026-05-03 21:23 | 38.45605 | -76.25384 | 36534 ft | 496 kts | 30° |
| 2026-05-03 21:23 | 38.48340 | -76.22710 | 36286 ft | 495 kts | 29° |
| 2026-05-03 21:23 | 38.51070 | -76.20038 | 36038 ft | 494 kts | 29° |
| 2026-05-03 21:24 | 38.53794 | -76.17370 | 35839 ft | 493 kts | 29° |
| 2026-05-03 21:24 | 38.56507 | -76.14703 | 35594 ft | 491 kts | 29° |
| 2026-05-03 21:24 | 38.59215 | -76.12038 | 34961 ft | 494 kts | 29° |
| 2026-05-03 21:24 | 38.61919 | -76.09381 | 33988 ft | 502 kts | 28° |
| 2026-05-03 21:25 | 38.64714 | -76.06658 | 33104 ft | 503 kts | 28° |
| 2026-05-03 21:25 | 38.67497 | -76.04011 | 32642 ft | 494 kts | 27° |
| 2026-05-03 21:25 | 38.70262 | -76.01434 | 32045 ft | 490 kts | 26° |
| 2026-05-03 21:25 | 38.73021 | -75.98890 | 31462 ft | 486 kts | 26° |
| 2026-05-03 21:26 | 38.75756 | -75.96369 | 30896 ft | 484 kts | 27° |
| 2026-05-03 21:26 | 38.78466 | -75.93858 | 30389 ft | 479 kts | 27° |
| 2026-05-03 21:26 | 38.81154 | -75.91351 | 29892 ft | 474 kts | 27° |
| 2026-05-03 21:26 | 38.83769 | -75.88899 | 29211 ft | 470 kts | 27° |
| 2026-05-03 21:27 | 38.86380 | -75.86438 | 28698 ft | 464 kts | 27° |
| 2026-05-03 21:27 | 38.88968 | -75.83998 | 28114 ft | 459 kts | 28° |
| 2026-05-03 21:27 | 38.91526 | -75.81586 | 27587 ft | 453 kts | 28° |
| 2026-05-03 21:27 | 38.94056 | -75.79200 | 27101 ft | 448 kts | 28° |
| 2026-05-03 21:28 | 38.96543 | -75.76853 | 26788 ft | 437 kts | 28° |
| 2026-05-03 21:28 | 38.98951 | -75.74570 | 26598 ft | 425 kts | 28° |
| 2026-05-03 21:28 | 39.01319 | -75.72325 | 26382 ft | 420 kts | 28° |
| 2026-05-03 21:28 | 39.03634 | -75.70140 | 26180 ft | 417 kts | 28° |
| 2026-05-03 21:29 | 39.05971 | -75.67940 | 25958 ft | 415 kts | 28° |
| 2026-05-03 21:29 | 39.08294 | -75.65750 | 25753 ft | 414 kts | 28° |
| 2026-05-03 21:29 | 39.10613 | -75.63558 | 25542 ft | 412 kts | 28° |
| 2026-05-03 21:29 | 39.12920 | -75.61370 | 25335 ft | 411 kts | 28° |
| 2026-05-03 21:30 | 39.15210 | -75.59189 | 25135 ft | 409 kts | 28° |
| 2026-05-03 21:30 | 39.17486 | -75.57015 | 24921 ft | 407 kts | 28° |
| 2026-05-03 21:30 | 39.19728 | -75.54873 | 24731 ft | 405 kts | 28° |
| 2026-05-03 21:30 | 39.21983 | -75.52725 | 24524 ft | 403 kts | 28° |
| 2026-05-03 21:31 | 39.24246 | -75.50580 | 24322 ft | 401 kts | 28° |
| 2026-05-03 21:31 | 39.26513 | -75.48515 | 24128 ft | 399 kts | 27° |
| 2026-05-03 21:31 | 39.28801 | -75.46494 | 23915 ft | 397 kts | 26° |
| 2026-05-03 21:31 | 39.31083 | -75.44511 | 23734 ft | 395 kts | 26° |
| 2026-05-03 21:32 | 39.33358 | -75.42536 | 23556 ft | 394 kts | 26° |
| 2026-05-03 21:32 | 39.35618 | -75.40559 | 23309 ft | 390 kts | 26° |
| 2026-05-03 21:32 | 39.37854 | -75.38587 | 23125 ft | 389 kts | 26° |
| 2026-05-03 21:32 | 39.40082 | -75.36606 | 22847 ft | 387 kts | 27° |
| 2026-05-03 21:33 | 39.42263 | -75.34658 | 22569 ft | 385 kts | 27° |
| 2026-05-03 21:33 | 39.44466 | -75.32688 | 22289 ft | 384 kts | 27° |
| 2026-05-03 21:33 | 39.46650 | -75.30732 | 22014 ft | 382 kts | 27° |
| 2026-05-03 21:33 | 39.48835 | -75.28776 | 21756 ft | 380 kts | 27° |
| 2026-05-03 21:34 | 39.51003 | -75.26835 | 21493 ft | 379 kts | 27° |
| 2026-05-03 21:34 | 39.53156 | -75.24871 | 21240 ft | 378 kts | 28° |
| 2026-05-03 21:34 | 39.55279 | -75.22895 | 20978 ft | 375 kts | 28° |
| 2026-05-03 21:34 | 39.57392 | -75.20909 | 20674 ft | 373 kts | 28° |
| 2026-05-03 21:35 | 39.59480 | -75.18938 | 20269 ft | 371 kts | 28° |
| 2026-05-03 21:35 | 39.61560 | -75.16976 | 19867 ft | 368 kts | 28° |
| 2026-05-03 21:35 | 39.63622 | -75.15030 | 19465 ft | 366 kts | 28° |
| 2026-05-03 21:35 | 39.65646 | -75.13119 | 19083 ft | 363 kts | 28° |
| 2026-05-03 21:36 | 39.67682 | -75.11199 | 18687 ft | 360 kts | 28° |
| 2026-05-03 21:36 | 39.69723 | -75.09342 | 18280 ft | 357 kts | 27° |
| 2026-05-03 21:36 | 39.71773 | -75.07562 | 17944 ft | 353 kts | 26° |
| 2026-05-03 21:36 | 39.73831 | -75.05821 | 17567 ft | 352 kts | 25° |
| 2026-05-03 21:37 | 39.75869 | -75.04107 | 17178 ft | 349 kts | 25° |
| 2026-05-03 21:37 | 39.77903 | -75.02387 | 16798 ft | 347 kts | 26° |
| 2026-05-03 21:37 | 39.79887 | -75.00693 | 16428 ft | 345 kts | 26° |
| 2026-05-03 21:37 | 39.81887 | -74.98976 | 16041 ft | 343 kts | 26° |
| 2026-05-03 21:38 | 39.83868 | -74.97265 | 15664 ft | 341 kts | 26° |
| 2026-05-03 21:38 | 39.85836 | -74.95558 | 15294 ft | 339 kts | 27° |
| 2026-05-03 21:38 | 39.87773 | -74.93831 | 14925 ft | 337 kts | 28° |
| 2026-05-03 21:38 | 39.89691 | -74.92089 | 14559 ft | 335 kts | 28° |
| 2026-05-03 21:39 | 39.91590 | -74.90336 | 14201 ft | 334 kts | 31° |
| 2026-05-03 21:39 | 39.93300 | -74.88248 | 13849 ft | 339 kts | 43° |
| 2026-05-03 21:39 | 39.94863 | -74.85979 | 13439 ft | 336 kts | 42° |
| 2026-05-03 21:39 | 39.96426 | -74.83728 | 13082 ft | 333 kts | 42° |
| 2026-05-03 21:40 | 39.97979 | -74.81503 | 12721 ft | 331 kts | 42° |
| 2026-05-03 21:40 | 39.99522 | -74.79300 | 12357 ft | 328 kts | 42° |
| 2026-05-03 21:40 | 40.01035 | -74.77139 | 12031 ft | 324 kts | 41° |
| 2026-05-03 21:40 | 40.02524 | -74.75003 | 11903 ft | 312 kts | 41° |
| 2026-05-03 21:41 | 40.03959 | -74.72938 | 11556 ft | 303 kts | 41° |
| 2026-05-03 21:41 | 40.05363 | -74.70915 | 10913 ft | 301 kts | 41° |
| 2026-05-03 21:41 | 40.06758 | -74.68915 | 10607 ft | 296 kts | 41° |
| 2026-05-03 21:41 | 40.08136 | -74.66943 | 10337 ft | 292 kts | 41° |
| 2026-05-03 21:42 | 40.09493 | -74.64995 | 10112 ft | 288 kts | 41° |
| 2026-05-03 21:42 | 40.10842 | -74.63059 | 10063 ft | 288 kts | 41° |
| 2026-05-03 21:42 | 40.12191 | -74.61122 | 10066 ft | 288 kts | 41° |
| 2026-05-03 21:42 | 40.13540 | -74.59183 | 10044 ft | 287 kts | 41° |
| 2026-05-03 21:43 | 40.14877 | -74.57259 | 9669 ft | 285 kts | 41° |
| 2026-05-03 21:43 | 40.16185 | -74.55369 | 9255 ft | 284 kts | 41° |
| 2026-05-03 21:43 | 40.17506 | -74.53457 | 8845 ft | 283 kts | 41° |
| 2026-05-03 21:43 | 40.18824 | -74.51551 | 8420 ft | 282 kts | 41° |
| 2026-05-03 21:44 | 40.20133 | -74.49657 | 8092 ft | 279 kts | 41° |
| 2026-05-03 21:44 | 40.21480 | -74.47828 | 8057 ft | 280 kts | 38° |
| 2026-05-03 21:44 | 40.22878 | -74.46054 | 8057 ft | 280 kts | 37° |
| 2026-05-03 21:44 | 40.24289 | -74.44304 | 8056 ft | 280 kts | 37° |
| 2026-05-03 21:45 | 40.25701 | -74.42553 | 8056 ft | 280 kts | 37° |
| 2026-05-03 21:45 | 40.27108 | -74.40803 | 8055 ft | 280 kts | 37° |
| 2026-05-03 21:45 | 40.28519 | -74.39041 | 8060 ft | 280 kts | 38° |
| 2026-05-03 21:45 | 40.29917 | -74.37288 | 7769 ft | 277 kts | 38° |
| 2026-05-03 21:46 | 40.31291 | -74.35561 | 7360 ft | 277 kts | 38° |
| 2026-05-03 21:46 | 40.32665 | -74.33822 | 7096 ft | 271 kts | 38° |
| 2026-05-03 21:46 | 40.33979 | -74.32144 | 7043 ft | 256 kts | 38° |
| 2026-05-03 21:46 | 40.35215 | -74.30560 | 7048 ft | 240 kts | 37° |
| 2026-05-03 21:47 | 40.36395 | -74.29059 | 7046 ft | 235 kts | 37° |
| 2026-05-03 21:47 | 40.37569 | -74.27575 | 7045 ft | 234 kts | 37° |
| 2026-05-03 21:47 | 40.38737 | -74.26098 | 7052 ft | 234 kts | 36° |
| 2026-05-03 21:47 | 40.39907 | -74.24617 | 7044 ft | 234 kts | 36° |
| 2026-05-03 21:48 | 40.41078 | -74.23136 | 7046 ft | 234 kts | 36° |
| 2026-05-03 21:48 | 40.42247 | -74.21658 | 7040 ft | 233 kts | 37° |
| 2026-05-03 21:48 | 40.43411 | -74.20180 | 7039 ft | 233 kts | 37° |
| 2026-05-03 21:48 | 40.44560 | -74.18719 | 7040 ft | 233 kts | 37° |
| 2026-05-03 21:49 | 40.45725 | -74.17238 | 7038 ft | 233 kts | 37° |
| 2026-05-03 21:49 | 40.46886 | -74.15758 | 7044 ft | 233 kts | 37° |
| 2026-05-03 21:49 | 40.48091 | -74.14361 | 6964 ft | 229 kts | 30° |
| 2026-05-03 21:49 | 40.49365 | -74.13121 | 6676 ft | 227 kts | 28° |
| 2026-05-03 21:50 | 40.50650 | -74.11914 | 6375 ft | 227 kts | 28° |
| 2026-05-03 21:50 | 40.51934 | -74.10714 | 6070 ft | 226 kts | 28° |
| 2026-05-03 21:50 | 40.53212 | -74.09519 | 5762 ft | 226 kts | 28° |
| 2026-05-03 21:50 | 40.54492 | -74.08318 | 5444 ft | 226 kts | 29° |
| 2026-05-03 21:51 | 40.55760 | -74.07124 | 5061 ft | 230 kts | 29° |
| 2026-05-03 21:51 | 40.57067 | -74.05893 | 4691 ft | 236 kts | 30° |
| 2026-05-03 21:51 | 40.58445 | -74.04598 | 4240 ft | 245 kts | 30° |
| 2026-05-03 21:51 | 40.59823 | -74.03295 | 3829 ft | 245 kts | 30° |
| 2026-05-03 21:52 | 40.61178 | -74.02007 | 3372 ft | 236 kts | 29° |
| 2026-05-03 21:52 | 40.62456 | -74.00782 | 3247 ft | 218 kts | 30° |
| 2026-05-03 21:52 | 40.63649 | -73.99640 | 3197 ft | 209 kts | 29° |
| 2026-05-03 21:52 | 40.64808 | -73.98535 | 3140 ft | 201 kts | 28° |
| 2026-05-03 21:53 | 40.65885 | -73.97503 | 3109 ft | 182 kts | 28° |
| 2026-05-03 21:53 | 40.66873 | -73.96598 | 3039 ft | 165 kts | 25° |
| 2026-05-03 21:53 | 40.67798 | -73.95799 | 2981 ft | 159 kts | 24° |
| 2026-05-03 21:53 | 40.68719 | -73.95014 | 2916 ft | 157 kts | 23° |
| 2026-05-03 21:54 | 40.69621 | -73.94209 | 2880 ft | 160 kts | 30° |
| 2026-05-03 21:54 | 40.70412 | -73.93152 | 2661 ft | 160 kts | 38° |
| 2026-05-03 21:54 | 40.71118 | -73.92148 | 2433 ft | 152 kts | 38° |
| 2026-05-03 21:54 | 40.71774 | -73.91003 | 2196 ft | 156 kts | 54° |
| 2026-05-03 21:55 | 40.72131 | -73.89635 | 1966 ft | 160 kts | 71° |
| 2026-05-03 21:55 | 40.72373 | -73.88211 | 1725 ft | 159 kts | 71° |
| 2026-05-03 21:55 | 40.72621 | -73.86791 | 1500 ft | 159 kts | 71° |
| 2026-05-03 21:55 | 40.72956 | -73.85444 | 1270 ft | 154 kts | 55° |
| 2026-05-03 21:56 | 40.73592 | -73.84391 | 1053 ft | 143 kts | 32° |
| 2026-05-03 21:56 | 40.74408 | -73.83716 | 836 ft | 136 kts | 12° |
| 2026-05-03 21:56 | 40.75308 | -73.83494 | 635 ft | 129 kts | 349° |
| 2026-05-03 21:56 | 40.76152 | -73.83774 | 480 ft | 122 kts | 325° |
| 2026-05-03 21:57 | 40.76702 | -73.84642 | 289 ft | 127 kts | 299° |
| 2026-05-03 21:57 | 40.77165 | -73.85622 | 92 ft | 125 kts | 301° |
| 2026-05-03 21:57 | 40.77608 | -73.86554 | 16 ft | 103 kts | 302° |
| 2026-05-03 21:57 | 40.77835 | -73.87027 | 19 ft | 31 kts | 302° |
| 2026-05-03 21:58 | 40.77913 | -73.87255 | 19 ft | 24 kts | 263° |
| 2026-05-03 21:58 | 40.77894 | -73.87329 | 18 ft | 0 kts | 248° |
| 2026-05-03 21:58 | 40.77892 | -73.87336 | 20 ft | 1 kts | 248° |
| 2026-05-03 21:58 | 40.77888 | -73.87351 | 18 ft | 3 kts | 243° |
| 2026-05-03 21:59 | 40.77842 | -73.87410 | 18 ft | 0 kts | 241° |
| 2026-05-03 21:59 | 40.77834 | -73.87409 | 18 ft | 4 kts | 182° |
| 2026-05-03 21:59 | 40.77783 | -73.87370 | 18 ft | 12 kts | 117° |
| 2026-05-03 21:59 | 40.77761 | -73.87252 | 19 ft | 16 kts | 101° |
| 2026-05-03 22:00 | 40.77696 | -73.87103 | 19 ft | 22 kts | 120° |
| 2026-05-03 22:00 | 40.77629 | -73.86961 | 17 ft | 17 kts | 122° |
| 2026-05-03 22:00 | 40.77564 | -73.86825 | 17 ft | 21 kts | 122° |
| 2026-05-03 22:00 | 40.77477 | -73.86671 | 17 ft | 20 kts | 123° |
| 2026-05-03 22:01 | 40.77401 | -73.86552 | 18 ft | 11 kts | 170° |
| 2026-05-03 22:01 | 40.77352 | -73.86581 | 18 ft | 8 kts | 200° |
| 2026-05-03 22:01 | 40.77308 | -73.86558 | 18 ft | 7 kts | 130° |
| 2026-05-03 22:01 | 40.77304 | -73.86552 | 18 ft | 0 kts | 131° |